createdAt,value
2019-05-12T00:00:58.861Z,69.30
2019-05-12T00:03:27.740Z,69.30
2019-05-12T00:05:57.777Z,69.40
2019-05-12T00:08:27.697Z,69.30
2019-05-12T00:10:58.292Z,69.30
2019-05-12T00:13:27.923Z,69.30
2019-05-12T00:15:58.351Z,69.30
2019-05-12T00:18:28.485Z,69.50
2019-05-12T00:20:58.409Z,69.70
2019-05-12T00:23:30.375Z,69.70
2019-05-12T00:25:58.740Z,69.80
2019-05-12T00:28:28.421Z,70.00
2019-05-12T00:30:58.025Z,70.00
2019-05-12T00:33:28.269Z,70.50
2019-05-12T00:35:58.693Z,70.80
2019-05-12T00:38:27.898Z,71.30
2019-05-12T00:40:58.377Z,71.30
2019-05-12T00:43:28.204Z,71.20
2019-05-12T00:45:58.648Z,71.40
2019-05-12T00:48:28.438Z,71.30
2019-05-12T00:50:58.354Z,71.10
2019-05-12T00:53:39.431Z,71.10
2019-05-12T00:55:58.002Z,71.90
2019-05-12T00:58:27.808Z,71.90
2019-05-12T01:00:59.607Z,72.00
2019-05-12T01:03:28.137Z,72.50
2019-05-12T01:05:57.786Z,72.70
2019-05-12T01:08:28.025Z,73.10
2019-05-12T01:10:58.305Z,72.90
2019-05-12T01:13:27.944Z,73.00
2019-05-12T01:15:58.651Z,72.70
2019-05-12T01:18:28.040Z,72.60
2019-05-12T01:20:58.338Z,72.70
2019-05-12T01:23:28.098Z,72.90
2019-05-12T01:25:58.480Z,73.20
2019-05-12T01:28:27.837Z,73.70
2019-05-12T01:30:58.371Z,74.10
2019-05-12T01:33:27.697Z,73.80
2019-05-12T01:35:58.686Z,73.80
2019-05-12T01:38:28.756Z,74.10
2019-05-12T01:40:58.406Z,74.20
2019-05-12T01:43:27.816Z,74.10
2019-05-12T01:45:58.928Z,74.00
2019-05-12T01:48:28.739Z,73.90
2019-05-12T01:50:58.051Z,74.10
2019-05-12T01:53:28.663Z,74.10
2019-05-12T01:55:58.550Z,74.00
2019-05-12T01:58:27.900Z,74.10
2019-05-12T02:00:58.797Z,73.90
2019-05-12T02:03:28.427Z,74.10
2019-05-12T02:05:58.883Z,74.50
2019-05-12T02:08:29.295Z,74.70
2019-05-12T02:11:18.090Z,74.70
2019-05-12T02:13:48.092Z,74.70
2019-05-12T02:16:18.619Z,75.50
2019-05-12T02:18:48.927Z,75.00
2019-05-12T02:21:18.938Z,76.20
2019-05-12T02:23:47.942Z,76.00
2019-05-12T02:26:18.766Z,75.90
2019-05-12T02:28:48.086Z,75.70
2019-05-12T02:31:20.262Z,75.60
2019-05-12T02:33:47.384Z,75.60
2019-05-12T02:36:16.242Z,75.70
2019-05-12T02:38:45.465Z,75.80
2019-05-12T02:41:15.494Z,75.70
2019-05-12T02:43:45.670Z,75.60
2019-05-12T02:46:15.549Z,75.50
2019-05-12T02:48:45.073Z,75.20
2019-05-12T02:51:15.900Z,75.00
2019-05-12T02:53:47.067Z,74.90
2019-05-12T02:56:15.923Z,75.00
2019-05-12T02:58:46.412Z,75.00
2019-05-12T03:01:15.753Z,74.90
2019-05-12T03:03:46.472Z,75.00
2019-05-12T03:06:17.013Z,74.90
2019-05-12T03:08:47.340Z,74.90
2019-05-12T03:11:16.180Z,75.20
2019-05-12T03:13:45.068Z,75.30
2019-05-12T03:16:15.044Z,75.20
2019-05-12T03:18:44.972Z,74.90
2019-05-12T03:21:15.238Z,74.80
2019-05-12T03:23:44.918Z,74.70
2019-05-12T03:26:15.318Z,75.30
2019-05-12T03:28:44.767Z,75.20
2019-05-12T03:31:21.950Z,75.20
2019-05-12T03:33:52.007Z,75.20
2019-05-12T03:36:17.772Z,75.00
2019-05-12T03:38:45.074Z,75.00
2019-05-12T03:41:14.698Z,74.90
2019-05-12T03:43:44.845Z,74.80
2019-05-12T03:46:15.233Z,74.70
2019-05-12T03:48:45.438Z,74.60
2019-05-12T03:51:15.395Z,75.70
2019-05-12T03:53:45.426Z,75.00
2019-05-12T03:56:15.281Z,75.10
2019-05-12T03:58:45.236Z,75.80
2019-05-12T04:01:15.252Z,75.50
2019-05-12T04:03:45.101Z,75.60
2019-05-12T04:06:15.502Z,75.80
2019-05-12T04:08:45.912Z,75.60
2019-05-12T04:11:14.852Z,75.20
2019-05-12T04:13:45.236Z,74.90
2019-05-12T04:16:16.368Z,74.90
2019-05-12T04:18:45.243Z,74.90
2019-05-12T04:21:15.584Z,74.70
2019-05-12T04:23:44.602Z,74.90
2019-05-12T04:26:16.952Z,74.50
2019-05-12T04:28:45.575Z,74.40
2019-05-12T04:31:15.441Z,74.40
2019-05-12T04:33:45.304Z,74.30
2019-05-12T04:36:15.027Z,74.10
2019-05-12T04:38:45.018Z,73.90
2019-05-12T04:41:14.726Z,73.70
2019-05-12T04:43:44.752Z,73.50
2019-05-12T04:46:14.538Z,72.90
2019-05-12T04:48:45.302Z,72.70
2019-05-12T04:51:15.365Z,72.30
2019-05-12T04:53:44.981Z,72.00
2019-05-12T04:56:19.779Z,71.20
2019-05-12T04:58:45.181Z,71.20
2019-05-12T05:01:15.495Z,70.90
2019-05-12T05:03:44.595Z,70.50
2019-05-12T05:06:14.938Z,70.30
2019-05-12T05:08:44.387Z,69.90
2019-05-12T05:11:14.892Z,70.00
2019-05-12T05:13:44.537Z,69.90
2019-05-12T05:16:14.410Z,69.90
2019-05-12T05:18:43.959Z,69.80
2019-05-12T05:21:13.919Z,69.40
2019-05-12T05:23:44.272Z,69.10
2019-05-12T05:26:22.134Z,69.20
2019-05-12T05:28:43.835Z,68.90
2019-05-12T05:31:14.024Z,69.10
2019-05-12T05:33:43.517Z,68.70
2019-05-12T05:36:15.083Z,68.60
2019-05-12T05:38:43.647Z,68.30
2019-05-12T05:41:13.469Z,68.30
2019-05-12T05:43:43.826Z,68.30
2019-05-12T05:46:13.839Z,67.90
2019-05-12T05:48:43.985Z,68.00
2019-05-12T05:51:13.615Z,67.90
2019-05-12T05:53:44.207Z,67.60
2019-05-12T05:56:14.404Z,67.60
2019-05-12T05:58:49.582Z,67.60
2019-05-12T06:01:13.978Z,66.90
2019-05-12T06:03:44.160Z,66.90
2019-05-12T06:06:15.252Z,66.40
2019-05-12T06:08:45.159Z,66.70
2019-05-12T06:11:23.026Z,66.70
2019-05-12T06:13:45.442Z,66.30
2019-05-12T06:16:20.771Z,66.40
2019-05-12T06:18:44.708Z,66.30
2019-05-12T06:21:13.820Z,66.00
2019-05-12T06:23:43.505Z,66.00
2019-05-12T06:26:14.051Z,66.00
2019-05-12T06:28:43.931Z,65.90
2019-05-12T06:31:13.774Z,65.70
2019-05-12T06:33:44.662Z,65.30
2019-05-12T06:36:21.724Z,65.10
2019-05-12T06:38:43.787Z,65.00
2019-05-12T06:41:20.308Z,65.00
2019-05-12T06:43:45.342Z,64.30
2019-05-12T06:46:20.508Z,64.10
2019-05-12T06:48:45.582Z,64.30
2019-05-12T06:51:19.387Z,64.00
2019-05-12T06:53:44.669Z,64.40
2019-05-12T06:56:15.340Z,64.20
2019-05-12T06:58:44.273Z,64.10
2019-05-12T07:01:19.096Z,63.00
2019-05-12T07:03:44.107Z,63.20
2019-05-12T07:06:18.006Z,63.00
2019-05-12T07:08:43.837Z,63.10
2019-05-12T07:11:14.275Z,62.10
2019-05-12T07:13:43.635Z,62.30
2019-05-12T07:16:22.910Z,62.50
2019-05-12T07:18:48.230Z,62.30
2019-05-12T07:21:20.207Z,61.30
2019-05-12T07:23:47.553Z,60.90
2019-05-12T07:26:19.312Z,61.90
2019-05-12T07:28:46.909Z,60.70
2019-05-12T07:31:15.968Z,60.80
2019-05-12T07:33:45.830Z,60.50
2019-05-12T07:36:15.698Z,60.40
2019-05-12T07:38:46.743Z,59.90
2019-05-12T07:41:15.793Z,58.70
2019-05-12T07:43:50.435Z,59.00
2019-05-12T07:46:18.216Z,59.30
2019-05-12T07:48:50.831Z,58.70
2019-05-12T07:51:17.441Z,58.60
2019-05-12T07:53:54.515Z,58.50
2019-05-12T07:56:19.575Z,58.40
2019-05-12T07:58:54.049Z,57.80
2019-05-12T08:01:17.997Z,57.10
2019-05-12T08:03:50.911Z,56.80
2019-05-12T08:06:17.196Z,57.20
2019-05-12T08:08:50.911Z,57.20
2019-05-12T08:11:16.477Z,57.40
2019-05-12T08:13:45.216Z,57.20
2019-05-12T08:16:14.334Z,56.80
2019-05-12T08:18:44.595Z,56.30
2019-05-12T08:21:14.068Z,56.10
2019-05-12T08:23:44.466Z,56.90
2019-05-12T08:26:18.376Z,56.40
2019-05-12T08:28:44.313Z,55.60
2019-05-12T08:31:14.094Z,54.70
2019-05-12T08:33:43.625Z,53.60
2019-05-12T08:36:15.988Z,54.10
2019-05-12T08:38:44.410Z,54.40
2019-05-12T08:41:14.569Z,54.60
2019-05-12T08:43:48.800Z,54.70
2019-05-12T08:46:15.582Z,53.20
2019-05-12T08:48:44.686Z,53.00
2019-05-12T08:51:16.765Z,52.30
2019-05-12T08:53:44.137Z,51.60
2019-05-12T08:56:18.991Z,51.70
2019-05-12T08:58:50.480Z,51.10
2019-05-12T09:01:13.953Z,50.70
2019-05-12T09:03:44.284Z,50.80
2019-05-12T09:06:15.525Z,50.40
2019-05-12T09:08:49.293Z,51.20
2019-05-12T09:11:15.074Z,50.80
2019-05-12T09:13:43.868Z,50.60
2019-05-12T09:16:13.903Z,50.60
2019-05-12T09:18:43.503Z,49.90
2019-05-12T09:21:14.121Z,50.20
2019-05-12T09:24:04.294Z,49.90
2019-05-12T09:26:34.379Z,47.60
2019-05-12T09:29:03.562Z,49.20
2019-05-12T09:31:33.685Z,48.60
2019-05-12T09:34:11.102Z,48.90
2019-05-12T09:36:33.912Z,49.00
2019-05-12T09:39:05.869Z,48.30
2019-05-12T09:41:42.451Z,48.00
2019-05-12T09:44:05.324Z,48.50
2019-05-12T09:46:37.489Z,47.60
2019-05-12T09:49:04.784Z,48.40
2019-05-12T09:51:41.234Z,48.30
2019-05-12T09:54:05.247Z,46.60
2019-05-12T09:56:34.333Z,48.20
2019-05-12T09:59:17.272Z,48.60
2019-05-12T10:01:35.330Z,48.40
2019-05-12T10:04:04.289Z,48.00
2019-05-12T10:06:33.963Z,47.60
2019-05-12T10:09:08.771Z,46.80
2019-05-12T10:11:34.460Z,47.00
2019-05-12T10:14:06.415Z,47.50
2019-05-12T10:16:33.886Z,47.80
2019-05-12T10:19:03.935Z,47.70
2019-05-12T10:21:32.873Z,47.10
2019-05-12T10:24:04.934Z,46.30
2019-05-12T10:26:34.293Z,46.80
2019-05-12T10:29:16.386Z,46.80
2019-05-12T10:31:35.555Z,47.20
2019-05-12T10:34:23.871Z,47.40
2019-05-12T10:36:53.731Z,47.30
2019-05-12T10:39:24.313Z,46.90
2019-05-12T10:41:54.559Z,46.40
2019-05-12T10:44:23.750Z,45.50
2019-05-12T10:46:54.118Z,45.20
2019-05-12T10:49:23.342Z,44.40
2019-05-12T10:51:54.036Z,44.20
2019-05-12T10:54:24.189Z,45.00
2019-05-12T10:56:54.618Z,44.20
2019-05-12T10:59:32.171Z,43.70
2019-05-12T11:01:54.155Z,43.70
2019-05-12T11:04:35.205Z,44.80
2019-05-12T11:06:53.838Z,45.20
2019-05-12T11:09:29.509Z,44.30
2019-05-12T11:11:54.041Z,43.90
2019-05-12T11:14:26.463Z,43.20
2019-05-12T11:16:54.877Z,43.40
2019-05-12T11:19:23.684Z,43.40
2019-05-12T11:21:53.663Z,43.90
2019-05-12T11:24:22.943Z,44.00
2019-05-12T11:26:53.672Z,43.40
2019-05-12T11:29:23.584Z,42.70
2019-05-12T11:31:53.815Z,42.30
2019-05-12T11:34:22.950Z,43.20
2019-05-12T11:36:54.370Z,43.10
2019-05-12T11:39:23.559Z,43.00
2019-05-12T11:41:55.239Z,43.10
2019-05-12T11:44:23.319Z,43.10
2019-05-12T11:46:54.423Z,43.00
2019-05-12T11:49:26.434Z,42.40
2019-05-12T11:51:54.311Z,41.90
2019-05-12T11:54:24.301Z,42.00
2019-05-12T11:56:53.712Z,41.90
2019-05-12T11:59:23.717Z,41.70
2019-05-12T12:01:54.015Z,42.30
2019-05-12T12:04:24.723Z,41.10
2019-05-12T12:06:54.288Z,41.00
2019-05-12T12:09:23.510Z,40.90
2019-05-12T12:11:54.681Z,41.60
2019-05-12T12:14:23.809Z,41.00
2019-05-12T12:16:54.429Z,41.70
2019-05-12T12:19:26.078Z,41.00
2019-05-12T12:21:53.934Z,41.20
2019-05-12T12:24:29.807Z,41.90
2019-05-12T12:26:53.783Z,41.60
2019-05-12T12:29:24.105Z,41.20
2019-05-12T12:31:54.933Z,40.50
2019-05-12T12:34:29.810Z,40.90
2019-05-12T12:36:54.529Z,39.60
2019-05-12T12:39:23.853Z,38.50
2019-05-12T12:41:59.837Z,39.10
2019-05-12T12:44:24.237Z,39.00
2019-05-12T12:46:59.827Z,38.90
2019-05-12T12:49:23.568Z,38.40
2019-05-12T12:51:52.392Z,39.30
2019-05-12T12:54:21.135Z,37.30
2019-05-12T12:56:49.926Z,37.30
2019-05-12T12:59:18.746Z,37.50
2019-05-12T13:01:47.565Z,37.70
2019-05-12T13:04:16.419Z,37.40
2019-05-12T13:06:46.031Z,38.10
2019-05-12T13:09:24.217Z,37.30
2019-05-12T13:11:45.187Z,37.80
2019-05-12T13:14:14.026Z,37.90
2019-05-12T13:16:43.663Z,36.80
2019-05-12T13:19:16.913Z,36.20
2019-05-12T13:21:43.911Z,35.50
2019-05-12T13:24:12.939Z,36.30
2019-05-12T13:26:43.602Z,34.70
2019-05-12T13:29:13.444Z,34.20
2019-05-12T13:31:46.538Z,34.50
2019-05-12T13:34:14.501Z,33.30
2019-05-12T13:36:44.014Z,33.30
2019-05-12T13:39:16.389Z,31.00
2019-05-12T13:41:43.808Z,30.60
2019-05-12T13:44:13.705Z,28.10
2019-05-12T13:46:43.771Z,28.50
2019-05-12T13:49:14.023Z,28.60
2019-05-12T13:51:47.904Z,28.60
2019-05-12T13:54:14.377Z,28.80
2019-05-12T13:56:44.368Z,29.40
2019-05-12T13:59:20.736Z,29.70
2019-05-12T14:01:45.694Z,28.80
2019-05-12T14:04:14.270Z,29.70
2019-05-12T14:06:43.013Z,30.20
2019-05-12T14:09:13.571Z,29.90
2019-05-12T14:11:43.724Z,30.20
2019-05-12T14:14:15.456Z,30.90
2019-05-12T14:16:44.665Z,31.60
2019-05-12T14:19:14.435Z,32.10
2019-05-12T14:21:43.488Z,31.20
2019-05-12T14:24:13.901Z,31.70
2019-05-12T14:26:47.534Z,31.20
2019-05-12T14:29:13.837Z,30.20
2019-05-12T14:31:51.082Z,30.00
2019-05-12T14:34:18.863Z,29.50
2019-05-12T14:36:43.757Z,29.80
2019-05-12T14:39:13.360Z,29.80
2019-05-12T14:41:44.573Z,29.90
2019-05-12T14:44:13.715Z,29.60
2019-05-12T14:46:46.262Z,30.50
2019-05-12T14:49:14.330Z,29.80
2019-05-12T14:51:44.252Z,30.00
2019-05-12T14:54:13.520Z,30.20
2019-05-12T14:56:47.173Z,31.10
2019-05-12T14:59:14.407Z,31.60
2019-05-12T15:01:53.647Z,31.60
2019-05-12T15:04:19.503Z,30.70
2019-05-12T15:06:47.095Z,31.80
2019-05-12T15:09:20.407Z,32.40
2019-05-12T15:11:50.430Z,33.20
2019-05-12T15:14:24.563Z,33.60
2019-05-12T15:16:49.740Z,34.20
2019-05-12T15:19:20.904Z,34.50
2019-05-12T15:21:49.110Z,34.90
2019-05-12T15:24:19.126Z,35.00
2019-05-12T15:26:50.392Z,35.00
2019-05-12T15:29:20.123Z,36.00
2019-05-12T15:31:54.180Z,36.00
2019-05-12T15:34:19.526Z,36.00
2019-05-12T15:36:52.164Z,36.10
2019-05-12T15:39:19.229Z,36.00
2019-05-12T15:41:51.132Z,36.30
2019-05-12T15:44:23.217Z,36.90
2019-05-12T15:46:49.148Z,36.70
2019-05-12T15:49:17.898Z,36.80
2019-05-12T15:51:54.073Z,37.80
2019-05-12T15:54:17.255Z,37.80
2019-05-12T15:56:46.499Z,37.80
2019-05-12T15:59:17.419Z,38.20
2019-05-12T16:02:01.639Z,38.40
2019-05-12T16:04:23.719Z,38.70
2019-05-12T16:06:57.067Z,39.20
2019-05-12T16:09:23.780Z,39.10
2019-05-12T16:11:52.628Z,38.40
2019-05-12T16:14:23.344Z,38.70
2019-05-12T16:16:53.566Z,39.40
2019-05-12T16:19:23.449Z,39.10
2019-05-12T16:21:54.135Z,39.20
2019-05-12T16:24:23.686Z,39.90
2019-05-12T16:26:53.588Z,40.20
2019-05-12T16:29:23.220Z,40.40
2019-05-12T16:31:53.684Z,40.30
2019-05-12T16:34:22.498Z,40.10
2019-05-12T16:36:52.634Z,40.00
2019-05-12T16:39:23.795Z,40.50
2019-05-12T16:41:54.289Z,40.60
2019-05-12T16:44:25.773Z,41.10
2019-05-12T16:46:53.500Z,41.40
2019-05-12T16:49:32.450Z,41.50
2019-05-12T16:51:54.218Z,41.70
2019-05-12T16:54:24.125Z,41.50
2019-05-12T16:56:53.775Z,41.90
2019-05-12T16:59:24.680Z,42.50
2019-05-12T17:01:54.258Z,43.00
2019-05-12T17:04:23.855Z,43.00
2019-05-12T17:06:52.682Z,42.90
2019-05-12T17:09:23.906Z,43.10
2019-05-12T17:11:53.346Z,43.50
2019-05-12T17:14:23.515Z,43.70
2019-05-12T17:16:54.378Z,43.80
2019-05-12T17:19:23.627Z,44.10
2019-05-12T17:21:55.515Z,44.60
2019-05-12T17:24:23.948Z,44.60
2019-05-12T17:26:54.320Z,45.10
2019-05-12T17:29:24.197Z,45.90
2019-05-12T17:31:53.601Z,46.30
2019-05-12T17:34:25.822Z,46.40
2019-05-12T17:36:56.114Z,46.90
2019-05-12T17:39:29.213Z,47.60
2019-05-12T17:41:54.858Z,47.60
2019-05-12T17:44:23.686Z,48.30
2019-05-12T17:46:54.087Z,48.10
2019-05-12T17:49:30.344Z,49.10
2019-05-12T17:51:53.485Z,49.70
2019-05-12T17:54:26.195Z,49.90
2019-05-12T17:56:52.851Z,50.50
2019-05-12T17:59:24.441Z,50.60
2019-05-12T18:01:54.056Z,50.50
2019-05-12T18:04:26.469Z,50.80
2019-05-12T18:06:53.573Z,51.00
2019-05-12T18:09:23.643Z,51.90
2019-05-12T18:11:56.148Z,51.90
2019-05-12T18:14:27.315Z,51.90
2019-05-12T18:17:02.136Z,52.30
2019-05-12T18:19:24.333Z,52.50
2019-05-12T18:21:54.978Z,52.70
2019-05-12T18:24:24.142Z,52.80
2019-05-12T18:26:59.312Z,52.90
2019-05-12T18:29:23.758Z,53.00
2019-05-12T18:31:55.546Z,53.00
2019-05-12T18:34:25.113Z,53.40
2019-05-12T18:36:55.813Z,53.50
2019-05-12T18:39:24.399Z,53.40
2019-05-12T18:41:54.121Z,53.50
2019-05-12T18:44:31.186Z,53.60
2019-05-12T18:46:54.025Z,53.90
2019-05-12T18:49:23.889Z,53.90
2019-05-12T18:51:55.134Z,54.20
2019-05-12T18:54:24.234Z,54.80
2019-05-12T18:57:02.439Z,54.50
2019-05-12T18:59:23.941Z,55.00
2019-05-12T19:01:54.123Z,54.90
2019-05-12T19:04:23.099Z,55.00
2019-05-12T19:06:54.198Z,55.00
2019-05-12T19:09:23.922Z,55.00
2019-05-12T19:11:53.635Z,55.10
2019-05-12T19:14:22.947Z,55.10
2019-05-12T19:16:53.835Z,55.50
2019-05-12T19:19:23.755Z,56.00
2019-05-12T19:22:03.169Z,55.80
2019-05-12T19:24:23.143Z,56.00
2019-05-12T19:26:54.163Z,55.90
2019-05-12T19:29:24.270Z,56.00
2019-05-12T19:31:57.283Z,56.40
2019-05-12T19:34:26.161Z,56.40
2019-05-12T19:36:53.972Z,56.90
2019-05-12T19:39:25.166Z,56.80
2019-05-12T19:41:54.390Z,56.80
2019-05-12T19:44:26.405Z,56.80
2019-05-12T19:46:54.052Z,56.60
2019-05-12T19:49:26.159Z,57.20
2019-05-12T19:51:54.427Z,57.10
2019-05-12T19:54:25.545Z,57.00
2019-05-12T19:56:53.820Z,56.90
2019-05-12T19:59:23.679Z,56.90
2019-05-12T20:01:53.564Z,56.80
2019-05-12T20:04:30.876Z,56.90
2019-05-12T20:06:54.431Z,56.80
2019-05-12T20:09:24.352Z,56.60
2019-05-12T20:11:53.793Z,56.80
2019-05-12T20:14:24.161Z,56.80
2019-05-12T20:16:54.480Z,56.80
2019-05-12T20:19:25.322Z,57.20
2019-05-12T20:21:54.372Z,57.20
2019-05-12T20:24:23.731Z,57.20
2019-05-12T20:26:53.736Z,57.10
2019-05-12T20:29:26.668Z,57.30
2019-05-12T20:31:53.811Z,57.30
2019-05-12T20:34:24.406Z,57.20
2019-05-12T20:36:53.758Z,57.40
2019-05-12T20:39:24.535Z,57.40
2019-05-12T20:41:54.630Z,57.50
2019-05-12T20:44:23.931Z,57.60
2019-05-12T20:46:56.000Z,58.30
2019-05-12T20:49:24.165Z,57.70
2019-05-12T20:51:55.261Z,58.00
2019-05-12T20:54:24.008Z,57.90
2019-05-12T20:57:01.860Z,57.80
2019-05-12T20:59:27.951Z,58.00
2019-05-12T21:01:53.765Z,58.00
2019-05-12T21:04:31.305Z,58.30
2019-05-12T21:06:54.165Z,58.20
2019-05-12T21:09:23.801Z,58.10
2019-05-12T21:11:54.780Z,58.10
2019-05-12T21:14:24.033Z,58.10
2019-05-12T21:16:53.862Z,58.10
2019-05-12T21:19:24.116Z,58.30
2019-05-12T21:21:53.239Z,58.20
2019-05-12T21:24:24.282Z,58.20
2019-05-12T21:26:54.735Z,58.20
2019-05-12T21:29:25.593Z,58.30
2019-05-12T21:31:56.039Z,58.10
2019-05-12T21:34:25.567Z,58.10
2019-05-12T21:36:59.062Z,58.10
2019-05-12T21:39:24.969Z,57.90
2019-05-12T21:41:54.919Z,58.00
2019-05-12T21:44:24.515Z,58.30
2019-05-12T21:47:03.680Z,58.10
2019-05-12T21:49:25.284Z,58.00
2019-05-12T21:51:59.419Z,58.10
2019-05-12T21:54:29.647Z,58.10
2019-05-12T21:56:55.091Z,57.90
2019-05-12T21:59:28.919Z,58.10
2019-05-12T22:01:54.487Z,58.20
2019-05-12T22:04:23.638Z,57.90
2019-05-12T22:06:56.902Z,57.90
2019-05-12T22:09:24.010Z,58.00
2019-05-12T22:11:55.864Z,57.80
2019-05-12T22:14:24.044Z,57.80
2019-05-12T22:16:54.485Z,57.80
2019-05-12T22:19:23.346Z,57.70
2019-05-12T22:21:53.689Z,57.70
2019-05-12T22:24:25.210Z,57.50
2019-05-12T22:26:54.314Z,57.50
2019-05-12T22:29:29.880Z,57.30
2019-05-12T22:31:54.107Z,57.40
2019-05-12T22:34:27.558Z,57.30
2019-05-12T22:36:57.925Z,57.30
2019-05-12T22:39:23.695Z,57.30
2019-05-12T22:41:52.577Z,57.30
2019-05-12T22:44:24.550Z,57.20
2019-05-12T22:46:53.905Z,57.20
2019-05-12T22:49:22.311Z,57.20
2019-05-12T22:51:53.862Z,57.30
2019-05-12T22:54:21.469Z,57.20
2019-05-12T22:56:55.131Z,57.90
2019-05-12T22:59:20.710Z,57.30
2019-05-12T23:01:49.533Z,57.40
2019-05-12T23:04:18.381Z,57.40
2019-05-12T23:06:47.131Z,57.30
2019-05-12T23:09:19.586Z,57.30
2019-05-12T23:11:46.357Z,58.00
2019-05-12T23:14:20.547Z,59.70
2019-05-12T23:16:45.559Z,59.90
2019-05-12T23:19:15.134Z,60.20
2019-05-12T23:21:44.078Z,60.20
2019-05-12T23:24:14.379Z,60.50
2019-05-12T23:26:47.723Z,60.60
2019-05-12T23:29:14.579Z,61.10
2019-05-12T23:31:43.451Z,60.60
2019-05-12T23:34:14.477Z,61.50
2019-05-12T23:36:43.978Z,61.30
2019-05-12T23:39:14.314Z,61.30
2019-05-12T23:41:43.797Z,61.80
2019-05-12T23:44:13.549Z,62.60
2019-05-12T23:46:43.746Z,62.70
2019-05-12T23:49:14.321Z,63.10
2019-05-12T23:51:43.871Z,62.70
2019-05-12T23:54:14.393Z,63.70
2019-05-12T23:56:44.357Z,63.60
2019-05-12T23:59:13.599Z,63.60
